Sapphire Coast — WDJ2691 — position and weather

sailwx.info

Track history (hours):
 
Tides and Currents Weather Stations Pressure Air Temp Water Temp Dewpoint Dewpoint Depression Visibility Wind Speed Wind Dir Waves Ship Positions

Sapphire Coast

Owner: M/V Sapphire Coast, LC, Chesapeake City, MD. More information available from US FCC via Universal Licensing System and Coast Guard Vessel Documentation Center.

Last reported at 2018-Apr-23 13:33 UTC. Time now 2018-Apr-24 02:49 UTC.
Position N 41°14' W 072°11'.

Length 38 m; draft 6 m.

Type: Tug. MMSI: 367002660.

Date/timePositionNaut miles runAvg speedWind from/ knotsBaromVisibWave heightAir tempDewpointWater temp
2018-Apr-23 13:33N 41°14' W 072°11'110.0
2018-Apr-23 13:30N 41°14' W 072°11'510.0
2018-Apr-23 13:00N 41°13' W 072°18'5 9.9
2018-Apr-23 12:30N 41°11' W 072°24'5 9.3
2018-Apr-23 12:00N 41°10' W 072°30'4 8.5
2018-Apr-23 11:30N 41°08' W 072°35'4 8.5
2018-Apr-23 11:00N 41°07' W 072°40'4 8.0
2018-Apr-23 10:29N 41°05' W 072°46'4 7.7
2018-Apr-23 10:00N 41°04' W 072°50'4 7.5
2018-Apr-23 09:30N 41°04' W 072°55'50 6.8
2018-Apr-23 02:10N 40°46' W 073°57'1 4.4
2018-Apr-23 02:00N 40°45' W 073°58'2 4.6
2018-Apr-23 01:28N 40°43' W 073°58'2 4.7
2018-Apr-23 01:00N 40°42' W 074°01'2 4.0
2018-Apr-23 00:30N 40°44' W 074°01'  
2018-Apr-15 13:07N 40°57' W 073°54'211.3
2018-Apr-15 12:59N 40°55' W 073°55'611.5
2018-Apr-15 12:30N 40°50' W 073°57'611.6
2018-Apr-15 12:00N 40°45' W 074°01'5 9.6
2018-Apr-15 11:30N 40°40' W 074°01'1 2.1
2018-Apr-15 11:00N 40°40' W 074°00'0 0.1
2018-Apr-15 10:30N 40°40' W 074°00'0 0.1
2018-Apr-15 10:00N 40°40' W 074°00'0 0.0
2018-Apr-15 09:30N 40°40' W 074°00'0 0.0
2018-Apr-15 09:00N 40°40' W 074°00'0 0.0
2018-Apr-15 08:30N 40°40' W 074°00'0 0.0
2018-Apr-15 08:00N 40°40' W 074°00'0 0.0
2018-Apr-15 07:30N 40°40' W 074°00'0 0.0
2018-Apr-15 07:00N 40°40' W 074°00'0 0.0
2018-Apr-15 06:30N 40°40' W 074°00'0 0.0
2018-Apr-15 06:00N 40°40' W 074°00'0 0.0
2018-Apr-15 05:30N 40°40' W 074°00'0 0.0
2018-Apr-15 05:00N 40°40' W 074°00'0 0.0
2018-Apr-15 04:30N 40°40' W 074°00'0 0.0
2018-Apr-15 04:00N 40°40' W 074°00'0 0.0
2018-Apr-15 03:30N 40°40' W 074°00'0 0.0
2018-Apr-15 03:00N 40°40' W 074°00'0 0.0
2018-Apr-15 02:30N 40°40' W 074°00'0 0.0
2018-Apr-15 02:00N 40°40' W 074°00'0 0.0
2018-Apr-15 01:30N 40°40' W 074°00'0 0.0
2018-Apr-15 01:00N 40°40' W 074°00'0 0.0
2018-Apr-15 00:30N 40°40' W 074°00'0 0.0
2018-Apr-15 00:00N 40°40' W 074°00'0 0.0
2018-Apr-14 23:30N 40°40' W 074°00'0 0.0
2018-Apr-14 23:00N 40°40' W 074°00'0 0.0
2018-Apr-14 22:30N 40°40' W 074°00'0 0.0
2018-Apr-14 22:00N 40°40' W 074°00'0 0.0
2018-Apr-14 21:30N 40°40' W 074°00'0 0.0
2018-Apr-14 21:00N 40°40' W 074°00'0 0.0
2018-Apr-14 20:30N 40°40' W 074°00'0 0.0
2018-Apr-14 20:00N 40°40' W 074°00'0 0.0
2018-Apr-14 19:30N 40°40' W 074°00'0 0.0
2018-Apr-14 18:59N 40°40' W 074°00'0 0.0
2018-Apr-14 18:30N 40°40' W 074°00'0 0.0
2018-Apr-14 18:00N 40°40' W 074°00'0 0.0
2018-Apr-14 17:30N 40°40' W 074°00'0 0.0
2018-Apr-14 17:00N 40°40' W 074°00'0 0.0
2018-Apr-14 16:30N 40°40' W 074°00'0 0.0
2018-Apr-14 16:00N 40°40' W 074°00'0 0.0
2018-Apr-14 15:30N 40°40' W 074°00'0 0.0
2018-Apr-14 15:00N 40°40' W 074°00'0 0.0
2018-Apr-14 14:30N 40°40' W 074°00'0 0.0
2018-Apr-14 14:00N 40°40' W 074°00'0 0.0
2018-Apr-14 13:30N 40°40' W 074°00'0 0.0
2018-Apr-14 13:00N 40°40' W 074°00'0 0.0
2018-Apr-14 12:30N 40°40' W 074°00'0 0.0
2018-Apr-14 12:00N 40°40' W 074°00'0 0.0
2018-Apr-14 11:30N 40°40' W 074°00'0 0.0
2018-Apr-14 11:00N 40°40' W 074°00'0 0.0
2018-Apr-14 10:30N 40°40' W 074°00'0 0.0
2018-Apr-14 10:00N 40°40' W 074°00'0 0.0
2018-Apr-14 09:29N 40°40' W 074°00'0 0.0
2018-Apr-14 09:00N 40°40' W 074°00'0 0.0
2018-Apr-14 08:30N 40°40' W 074°00'0 0.0
2018-Apr-14 08:00N 40°40' W 074°00'0 0.0
2018-Apr-14 07:30N 40°40' W 074°00'0 0.0
2018-Apr-14 07:00N 40°40' W 074°00'0 0.0
2018-Apr-14 06:30N 40°40' W 074°00'0 0.0
2018-Apr-14 06:00N 40°40' W 074°00'0 0.0
2018-Apr-14 05:30N 40°40' W 074°00'0 0.0
2018-Apr-14 05:00N 40°40' W 074°00'0 0.0
2018-Apr-14 04:30N 40°40' W 074°00'0 0.0
2018-Apr-14 04:00N 40°40' W 074°00'0 0.0
2018-Apr-14 03:30N 40°40' W 074°00'0 0.0
2018-Apr-14 03:00N 40°40' W 074°00'0 0.0
2018-Apr-14 02:30N 40°40' W 074°00'0 0.0
2018-Apr-14 02:00N 40°40' W 074°00'0 0.0
2018-Apr-14 01:30N 40°40' W 074°00'0 0.0
2018-Apr-14 01:00N 40°40' W 074°00'0 0.0
2018-Apr-14 00:30N 40°40' W 074°00'0 0.0
2018-Apr-14 00:00N 40°40' W 074°00'0 0.0
2018-Apr-13 23:30N 40°40' W 074°00'0 0.0
2018-Apr-13 23:00N 40°40' W 074°00'0 0.0
2018-Apr-13 22:30N 40°40' W 074°00'0 0.0
2018-Apr-13 22:00N 40°40' W 074°00'0 0.0
2018-Apr-13 21:30N 40°40' W 074°00'0 0.0
2018-Apr-13 20:59N 40°40' W 074°00'0 0.0
2018-Apr-13 20:30N 40°40' W 074°00'0 0.0
2018-Apr-13 20:00N 40°40' W 074°00'0 0.0
2018-Apr-13 19:30N 40°40' W 074°00'0 0.0
2018-Apr-13 19:00N 40°40' W 074°00'0 0.0
2018-Apr-13 18:30N 40°40' W 074°00'0 0.0
2018-Apr-13 18:00N 40°40' W 074°00'0 0.0
2018-Apr-13 17:30N 40°40' W 074°00'0 0.0
2018-Apr-13 17:00N 40°40' W 074°00'0 0.0
2018-Apr-13 16:30N 40°40' W 074°00'0 0.0
2018-Apr-13 16:00N 40°40' W 074°00'0 0.0
2018-Apr-13 15:30N 40°40' W 074°00'0 0.0
2018-Apr-13 15:00N 40°40' W 074°00'0 0.0
2018-Apr-13 14:30N 40°40' W 074°00'0 0.0
2018-Apr-13 14:00N 40°40' W 074°00'  
Track history (hours):
 
Tides and Currents Weather Stations Pressure Air Temp Water Temp Dewpoint Dewpoint Depression Visibility Wind Speed Wind Dir Waves Ship Positions

Sapphire Coast

Owner: M/V Sapphire Coast, LC, Chesapeake City, MD. More information available from US FCC via Universal Licensing System and Coast Guard Vessel Documentation Center.

Last reported at 2018-Apr-23 13:33 UTC. Time now 2018-Apr-24 02:49 UTC.
Position N 41°14' W 072°11'.

Length 38 m; draft 6 m.

Type: Tug. MMSI: 367002660.

Date/timePositionNaut miles runAvg speedWind from/ knotsBaromVisibWave heightAir tempDewpointWater temp
2018-Apr-23 13:33N 41°14' W 072°11'110.0
2018-Apr-23 13:30N 41°14' W 072°11'510.0
2018-Apr-23 13:00N 41°13' W 072°18'5 9.9
2018-Apr-23 12:30N 41°11' W 072°24'5 9.3
2018-Apr-23 12:00N 41°10' W 072°30'4 8.5
2018-Apr-23 11:30N 41°08' W 072°35'4 8.5
2018-Apr-23 11:00N 41°07' W 072°40'4 8.0
2018-Apr-23 10:29N 41°05' W 072°46'4 7.7
2018-Apr-23 10:00N 41°04' W 072°50'4 7.5
2018-Apr-23 09:30N 41°04' W 072°55'50 6.8
2018-Apr-23 02:10N 40°46' W 073°57'1 4.4
2018-Apr-23 02:00N 40°45' W 073°58'2 4.6
2018-Apr-23 01:28N 40°43' W 073°58'2 4.7
2018-Apr-23 01:00N 40°42' W 074°01'2 4.0
2018-Apr-23 00:30N 40°44' W 074°01'  
2018-Apr-15 13:07N 40°57' W 073°54'211.3
2018-Apr-15 12:59N 40°55' W 073°55'611.5
2018-Apr-15 12:30N 40°50' W 073°57'611.6
2018-Apr-15 12:00N 40°45' W 074°01'5 9.6
2018-Apr-15 11:30N 40°40' W 074°01'1 2.1
2018-Apr-15 11:00N 40°40' W 074°00'0 0.1
2018-Apr-15 10:30N 40°40' W 074°00'0 0.1
2018-Apr-15 10:00N 40°40' W 074°00'0 0.0
2018-Apr-15 09:30N 40°40' W 074°00'0 0.0
2018-Apr-15 09:00N 40°40' W 074°00'0 0.0
2018-Apr-15 08:30N 40°40' W 074°00'0 0.0
2018-Apr-15 08:00N 40°40' W 074°00'0 0.0
2018-Apr-15 07:30N 40°40' W 074°00'0 0.0
2018-Apr-15 07:00N 40°40' W 074°00'0 0.0
2018-Apr-15 06:30N 40°40' W 074°00'0 0.0
2018-Apr-15 06:00N 40°40' W 074°00'0 0.0
2018-Apr-15 05:30N 40°40' W 074°00'0 0.0
2018-Apr-15 05:00N 40°40' W 074°00'0 0.0
2018-Apr-15 04:30N 40°40' W 074°00'0 0.0
2018-Apr-15 04:00N 40°40' W 074°00'0 0.0
2018-Apr-15 03:30N 40°40' W 074°00'0 0.0
2018-Apr-15 03:00N 40°40' W 074°00'0 0.0
2018-Apr-15 02:30N 40°40' W 074°00'0 0.0
2018-Apr-15 02:00N 40°40' W 074°00'0 0.0
2018-Apr-15 01:30N 40°40' W 074°00'0 0.0
2018-Apr-15 01:00N 40°40' W 074°00'0 0.0
2018-Apr-15 00:30N 40°40' W 074°00'0 0.0
2018-Apr-15 00:00N 40°40' W 074°00'0 0.0
2018-Apr-14 23:30N 40°40' W 074°00'0 0.0
2018-Apr-14 23:00N 40°40' W 074°00'0 0.0
2018-Apr-14 22:30N 40°40' W 074°00'0 0.0
2018-Apr-14 22:00N 40°40' W 074°00'0 0.0
2018-Apr-14 21:30N 40°40' W 074°00'0 0.0
2018-Apr-14 21:00N 40°40' W 074°00'0 0.0
2018-Apr-14 20:30N 40°40' W 074°00'0 0.0
2018-Apr-14 20:00N 40°40' W 074°00'0 0.0
2018-Apr-14 19:30N 40°40' W 074°00'0 0.0
2018-Apr-14 18:59N 40°40' W 074°00'0 0.0
2018-Apr-14 18:30N 40°40' W 074°00'0 0.0
2018-Apr-14 18:00N 40°40' W 074°00'0 0.0
2018-Apr-14 17:30N 40°40' W 074°00'0 0.0
2018-Apr-14 17:00N 40°40' W 074°00'0 0.0
2018-Apr-14 16:30N 40°40' W 074°00'0 0.0
2018-Apr-14 16:00N 40°40' W 074°00'0 0.0
2018-Apr-14 15:30N 40°40' W 074°00'0 0.0
2018-Apr-14 15:00N 40°40' W 074°00'0 0.0
2018-Apr-14 14:30N 40°40' W 074°00'0 0.0
2018-Apr-14 14:00N 40°40' W 074°00'0 0.0
2018-Apr-14 13:30N 40°40' W 074°00'0 0.0
2018-Apr-14 13:00N 40°40' W 074°00'0 0.0
2018-Apr-14 12:30N 40°40' W 074°00'0 0.0
2018-Apr-14 12:00N 40°40' W 074°00'0 0.0
2018-Apr-14 11:30N 40°40' W 074°00'0 0.0
2018-Apr-14 11:00N 40°40' W 074°00'0 0.0
2018-Apr-14 10:30N 40°40' W 074°00'0 0.0
2018-Apr-14 10:00N 40°40' W 074°00'0 0.0
2018-Apr-14 09:29N 40°40' W 074°00'0 0.0
2018-Apr-14 09:00N 40°40' W 074°00'0 0.0
2018-Apr-14 08:30N 40°40' W 074°00'0 0.0
2018-Apr-14 08:00N 40°40' W 074°00'0 0.0
2018-Apr-14 07:30N 40°40' W 074°00'0 0.0
2018-Apr-14 07:00N 40°40' W 074°00'0 0.0
2018-Apr-14 06:30N 40°40' W 074°00'0 0.0
2018-Apr-14 06:00N 40°40' W 074°00'0 0.0
2018-Apr-14 05:30N 40°40' W 074°00'0 0.0
2018-Apr-14 05:00N 40°40' W 074°00'0 0.0
2018-Apr-14 04:30N 40°40' W 074°00'0 0.0
2018-Apr-14 04:00N 40°40' W 074°00'0 0.0
2018-Apr-14 03:30N 40°40' W 074°00'0 0.0
2018-Apr-14 03:00N 40°40' W 074°00'0 0.0
2018-Apr-14 02:30N 40°40' W 074°00'0 0.0
2018-Apr-14 02:00N 40°40' W 074°00'0 0.0
2018-Apr-14 01:30N 40°40' W 074°00'0 0.0
2018-Apr-14 01:00N 40°40' W 074°00'0 0.0
2018-Apr-14 00:30N 40°40' W 074°00'0 0.0
2018-Apr-14 00:00N 40°40' W 074°00'0 0.0
2018-Apr-13 23:30N 40°40' W 074°00'0 0.0
2018-Apr-13 23:00N 40°40' W 074°00'0 0.0
2018-Apr-13 22:30N 40°40' W 074°00'0 0.0
2018-Apr-13 22:00N 40°40' W 074°00'0 0.0
2018-Apr-13 21:30N 40°40' W 074°00'0 0.0
2018-Apr-13 20:59N 40°40' W 074°00'0 0.0
2018-Apr-13 20:30N 40°40' W 074°00'0 0.0
2018-Apr-13 20:00N 40°40' W 074°00'0 0.0
2018-Apr-13 19:30N 40°40' W 074°00'0 0.0
2018-Apr-13 19:00N 40°40' W 074°00'0 0.0
2018-Apr-13 18:30N 40°40' W 074°00'0 0.0
2018-Apr-13 18:00N 40°40' W 074°00'0 0.0
2018-Apr-13 17:30N 40°40' W 074°00'0 0.0
2018-Apr-13 17:00N 40°40' W 074°00'0 0.0
2018-Apr-13 16:30N 40°40' W 074°00'0 0.0
2018-Apr-13 16:00N 40°40' W 074°00'0 0.0
2018-Apr-13 15:30N 40°40' W 074°00'0 0.0
2018-Apr-13 15:00N 40°40' W 074°00'0 0.0
2018-Apr-13 14:30N 40°40' W 074°00'0 0.0
2018-Apr-13 14:00N 40°40' W 074°00'  

Dump ship's entire track history